Latest Weather Observations for Moomba Airport

IDS60801

Issued at 5:35 pm CST Saturday 2 August 2014 (issued every 30 minutes, with the page automatically refreshed every 10 minutes)

About weather observations | Map of weather stations | Latest weather observations for SA | Other Formats
Station Details ID: 017123 Name: MOOMBA AIRPORT Lat: -28.10 Lon: 140.20 Height: 37.8 m
Data from the previous 72 hours. | See also: Recent months at Moomba Airport
Date/Time
CST
Temp
°C
App
Temp
°C
Dew
Point
Rel
Hum
%
Delta-T
°C
Wind Press
QNH
hPa
Press
MSL
hPa
Rain
since 9 am
mm
Dir
 
Spd
km/h
Gust
km/h
Spd
kts
Gust
kts
02/05:30pm 14.5 8.5 -6.9 22 7.7 SE 17 22 9 12 1027.8 1027.7 0.0
02/05:00pm 15.1 8.7 -7.0 21 8.0 SE 19 26 10 14 1027.5 - 0.0
02/04:30pm 15.6 9.2 -6.6 21 8.1 ESE 19 28 10 15 1027.4 1027.3 0.0
02/04:00pm 16.0 9.7 -6.3 21 8.3 ESE 19 26 10 14 1027.3 - 0.0
02/03:30pm 16.2 9.4 -4.9 23 8.1 ESE 22 28 12 15 1027.3 1027.2 0.0
02/03:00pm 16.4 9.6 -5.3 22 8.2 ESE 22 28 12 15 1027.3 1027.2 0.0
02/02:30pm 15.8 9.0 -4.7 24 7.8 SE 22 30 12 16 1027.7 1027.6 0.0
02/02:00pm 15.3 9.6 -4.1 26 7.5 SE 17 24 9 13 1028.0 - 0.0
02/01:30pm 15.0 9.2 -4.3 26 7.4 SE 17 28 9 15 1028.3 1028.2 0.0
02/01:00pm 15.1 8.4 -4.2 26 7.5 ESE 22 32 12 17 1028.7 - 0.0
02/12:30pm 14.5 7.8 -8.2 20 7.9 SE 20 32 11 17 1029.3 1029.3 0.0
02/12:00pm 13.8 6.8 -7.5 22 7.5 ESE 22 32 12 17 1029.8 1029.8 0.0
02/11:30am 13.8 6.4 -7.5 22 7.5 ESE 24 32 13 17 1030.3 1030.3 0.0
02/11:00am 13.4 6.1 -6.7 24 7.2 SE 24 32 13 17 1030.6 - 0.0
02/10:30am 13.0 5.4 -5.1 28 6.6 ESE 26 33 14 18 1030.8 1030.8 0.0
02/10:00am 11.9 5.1 -1.6 39 5.3 ESE 24 32 13 17 1031.0 - 0.0
02/09:30am 11.0 3.9 -1.4 42 4.8 ESE 26 33 14 18 1031.0 1031.0 0.0
02/09:00am 9.4 3.0 -1.9 45 4.3 ESE 22 32 12 17 1030.8 1030.8 0.0
02/08:30am 8.2 2.1 -2.1 48 3.8 SE 20 28 11 15 1030.5 1030.5 0.0
02/08:00am 6.9 0.8 -2.5 51 3.4 SE 20 28 11 15 1030.1 - 0.0
02/07:30am 6.6 1.5 -2.0 54 3.1 SSE 15 22 8 12 1029.8 1029.8 0.0
02/07:00am 5.4 0.2 -2.9 55 2.9 SSE 15 30 8 16 1029.5 - 0.0
02/06:30am 5.5 0.3 -3.1 54 3.0 SSE 15 22 8 12 1029.1 1029.1 0.0
02/06:00am 5.7 0.1 -2.9 54 3.0 SSE 17 26 9 14 1028.8 1028.7 0.0
02/05:30am 6.3 0.3 -2.8 52 3.3 SSE 19 28 10 15 1028.5 1028.4 0.0
02/05:00am 5.7 -0.5 -2.9 54 3.1 S 20 26 11 14 1028.2 - 0.0
02/04:30am 5.9 -0.1 -2.9 53 3.1 S 19 26 10 14 1028.0 1027.9 0.0
02/04:00am 6.0 0.8 -3.1 52 3.2 S 15 19 8 10 1028.0 - 0.0
02/03:30am 6.3 1.1 -3.1 51 3.3 S 15 19 8 10 1027.9 1027.8 0.0
02/03:00am 6.8 1.2 -2.9 50 3.5 S 17 20 9 11 1027.9 1027.8 0.0
02/02:30am 8.2 2.3 -2.4 47 3.9 S 19 22 10 12 1027.7 1027.6 0.0
02/02:00am 8.4 2.8 -2.5 46 4.1 S 17 20 9 11 1027.8 - 0.0
02/01:30am 8.7 3.1 -3.2 43 4.3 S 17 24 9 13 1027.7 1027.6 0.0
02/01:00am 9.8 3.7 -2.5 42 4.7 SSE 20 26 11 14 1027.5 - 0.0
02/12:30am 8.0 2.6 -4.8 40 4.4 S 15 19 8 10 1027.2 1027.1 0.0
02/12:00am 7.4 2.7 -4.7 42 4.2 S 11 13 6 7 1027.2 1027.1 0.0
 
Date/Time
CST
Temp
°C
App
Temp
°C
Dew
Point
Rel
Hum
%
Delta-T
°C
Wind Press
QNH
hPa
Press
MSL
hPa
Rain
since 9 am
mm
Dir
 
Spd
km/h
Gust
km/h
Spd
kts
Gust
kts
01/11:30pm 8.4 3.8 -4.4 40 4.5 S 11 15 6 8 1027.3 1027.2 0.0
01/11:00pm 9.6 5.4 -4.0 38 5.0 SSE 9 17 5 9 1027.1 - 0.0
01/10:30pm 9.8 5.6 -4.2 37 5.0 SSE 9 11 5 6 1027.0 1026.9 0.0
01/10:00pm 10.4 5.7 -5.2 33 5.6 S 11 15 6 8 1026.9 - 0.0
01/09:30pm 10.7 6.4 -5.3 32 5.7 SSE 9 13 5 7 1026.7 1026.6 0.0
01/09:00pm 10.8 6.5 -5.2 32 5.7 S 9 15 5 8 1026.5 1026.4 0.0
01/08:30pm 11.5 6.4 -5.4 30 6.1 S 13 17 7 9 1026.3 1026.2 0.0
01/08:00pm 12.1 7.0 -4.9 30 6.2 S 13 19 7 10 1025.9 - 0.0
01/07:30pm 12.0 7.0 -4.2 32 6.0 S 13 17 7 9 1025.3 1025.2 0.0
01/07:00pm 11.9 7.6 -4.7 31 6.1 SSW 9 11 5 6 1024.8 - 0.0
01/06:30pm 13.1 8.1 -4.1 30 6.5 SW 13 15 7 8 1024.1 1024.1 0.0
01/06:00pm 14.0 9.1 -3.7 29 6.8 SSW 13 17 7 9 1023.8 1023.8 0.0
01/05:30pm 15.1 9.1 -3.3 28 7.2 SSW 19 26 10 14 1023.4 1023.4 0.0
01/05:00pm 15.8 9.7 -3.6 26 7.6 S 19 24 10 13 1023.2 - 0.0
01/04:30pm 15.9 9.9 -3.1 27 7.5 SSW 19 28 10 15 1022.9 1022.9 0.0
01/04:00pm 16.2 9.6 -3.3 26 7.8 SSW 22 32 12 17 1022.8 - 0.0
01/03:30pm 16.2 10.0 -3.3 26 7.7 SSW 20 39 11 21 1022.6 1022.6 0.0
01/03:00pm 16.3 9.8 -2.7 27 7.6 SSW 22 35 12 19 1022.5 1022.5 0.0
01/02:30pm 16.6 9.7 -3.0 26 7.9 SSW 24 33 13 18 1022.4 1022.4 0.0
01/02:00pm 16.5 9.2 -3.0 26 7.8 SSW 26 35 14 19 1022.6 - 0.0
01/01:30pm 16.1 8.4 -2.9 27 7.6 SSW 28 37 15 20 1022.8 1022.8 0.0
01/01:00pm 16.2 8.9 -2.8 27 7.7 SSW 26 37 14 20 1022.7 - 0.0
01/12:30pm 15.7 8.6 -1.4 31 7.0 SSW 26 41 14 22 1023.1 1023.1 0.0
01/12:00pm 15.6 8.2 -1.0 32 6.9 SW 28 39 15 21 1023.2 1023.2 0.0
01/11:30am 15.5 8.0 -1.5 31 7.0 SSW 28 39 15 21 1023.4 1023.4 0.0
01/11:00am 15.2 7.5 -2.7 29 7.2 SSW 28 39 15 21 1023.5 - 0.0
01/10:30am 14.6 7.2 -0.7 35 6.3 SW 28 43 15 23 1023.4 1023.4 0.0
01/10:00am 13.9 5.9 0.5 40 5.7 SSW 32 41 17 22 1023.4 - 0.0
01/09:30am 13.1 5.2 0.8 43 5.2 SSW 32 46 17 25 1023.0 1023.0 0.0
01/09:00am 12.6 5.1 1.3 46 4.8 SW 30 41 16 22 1022.6 1022.7 0.0
01/08:30am 11.7 4.4 2.2 52 4.1 SW 30 43 16 23 1021.8 1021.9 0.0
01/08:00am 10.6 5.4 2.4 57 3.5 SW 19 26 10 14 1021.4 - 0.0
01/07:30am 9.9 4.5 2.7 61 3.1 SW 20 24 11 13 1020.9 1021.0 0.0
01/07:00am 9.6 4.4 2.2 60 3.1 SW 19 24 10 13 1020.6 - 0.0
01/06:30am 10.2 5.0 2.6 59 3.2 SW 19 24 10 13 1020.2 1020.2 0.0
01/06:00am 10.6 5.3 3.2 60 3.2 SW 20 26 11 14 1019.6 1019.6 0.0
01/05:30am 11.3 5.5 4.3 62 3.1 SW 24 33 13 18 1019.2 1019.2 0.0
01/05:00am 11.7 6.0 5.1 64 3.0 SW 24 35 13 19 1018.5 - 0.0
01/04:30am 12.0 6.6 6.3 68 2.7 SW 24 32 13 17 1017.9 1017.9 0.0
01/04:00am 12.4 7.1 6.9 69 2.6 SW 24 30 13 16 1017.6 - 0.0
01/03:30am 12.9 8.1 7.4 69 2.7 SW 22 32 12 17 1017.2 1017.2 0.0
01/03:00am 13.4 8.2 7.4 67 2.9 SW 24 33 13 18 1016.9 1016.9 0.0
01/02:30am 14.0 8.5 7.5 65 3.2 SW 26 33 14 18 1016.7 1016.7 0.0
01/02:00am 14.0 8.4 3.5 49 4.7 SW 22 28 12 15 1016.4 - 0.0
01/01:30am 14.9 8.3 -0.4 35 6.4 SW 24 32 13 17 1016.0 1016.0 0.0
01/01:00am 13.6 7.5 -3.6 30 6.6 WSW 19 22 10 12 1015.5 - 0.0
01/12:30am 13.4 7.6 -4.2 29 6.7 W 17 19 9 10 1015.1 1015.1 0.0
01/12:00am 14.6 8.9 -3.7 28 7.1 WNW 17 20 9 11 1014.8 1014.8 0.0
 
Date/Time
CST
Temp
°C
App
Temp
°C
Dew
Point
Rel
Hum
%
Delta-T
°C
Wind Press
QNH
hPa
Press
MSL
hPa
Rain
since 9 am
mm
Dir
 
Spd
km/h
Gust
km/h
Spd
kts
Gust
kts
31/11:30pm 15.0 9.3 -3.8 27 7.3 WNW 17 20 9 11 1014.9 1014.9 0.0
31/11:00pm 16.7 10.7 -3.4 25 8.0 WNW 19 20 10 11 1014.7 - 0.0
31/10:30pm 16.6 10.5 -3.5 25 8.0 NNW 19 22 10 12 1014.0 1014.0 0.0
31/10:00pm 17.1 11.0 -3.6 24 8.3 NNW 19 24 10 13 1014.2 - 0.0
31/09:30pm 17.4 11.4 -3.4 24 8.4 NNW 19 22 10 12 1014.2 1014.2 0.0
31/09:00pm 18.1 12.1 -2.8 24 8.6 NW 19 20 10 11 1014.1 1014.1 0.0
31/08:30pm 17.7 12.1 -3.1 24 8.4 NW 17 19 9 10 1014.1 1014.1 0.0
31/08:00pm 17.7 12.5 -3.1 24 8.5 NNW 15 17 8 9 1014.0 - 0.0
31/07:30pm 18.4 12.8 -2.5 24 8.7 NW 17 19 9 10 1013.9 1013.9 0.0
31/07:00pm 18.4 13.2 -2.5 24 8.7 NW 15 17 8 9 1013.5 - 0.0
31/06:30pm 20.5 15.7 -2.5 21 9.7 WNW 13 15 7 8 1013.3 1013.3 0.0
31/06:00pm 21.7 16.6 -2.2 20 10.3 W 15 15 8 8 1013.2 1013.2 0.0
31/05:30pm 23.9 18.8 -1.8 18 11.3 W 15 20 8 11 1013.0 1013.0 0.0
31/05:00pm 25.4 19.6 -1.4 17 12.1 W 19 24 10 13 1013.1 - 0.0
31/04:30pm 25.8 19.4 -1.9 16 12.4 W 22 28 12 15 1013.0 1013.0 0.0
31/04:00pm 26.1 20.1 -1.7 16 12.5 WNW 20 28 11 15 1013.2 - 0.0
31/03:30pm 26.1 19.7 -1.7 16 12.5 WNW 22 33 12 18 1013.3 1013.3 0.0
31/03:00pm 25.8 19.4 -1.9 16 12.4 WNW 22 33 12 18 1013.5 1013.5 0.0
31/02:30pm 26.1 20.3 -1.7 16 12.5 W 19 22 10 12 1013.8 1013.8 0.0
31/02:00pm 26.2 20.8 -1.6 16 12.6 WNW 17 26 9 14 1014.2 - 0.0
31/01:30pm 25.8 19.9 -1.9 16 12.4 NW 19 26 10 14 1014.7 1014.7 0.0
31/01:00pm 25.3 19.4 -2.3 16 12.2 NNW 19 26 10 14 1015.2 - 0.0
31/12:30pm 25.2 18.4 -1.6 17 12.0 NNW 24 32 13 17 1015.8 1015.8 0.0
31/12:00pm 24.3 17.1 -2.3 17 11.7 NW 26 39 14 21 1016.7 1016.7 0.0
31/11:30am 24.4 18.3 -2.2 17 11.7 NNW 20 28 11 15 1017.2 1017.2 0.0
31/11:00am 23.1 17.0 -2.5 18 11.1 N 20 24 11 13 1017.5 - 0.0
31/10:30am 22.1 16.6 -1.9 20 10.4 N 17 22 9 12 1018.0 1018.0 0.0
31/10:00am 20.6 14.6 -10.9 11 11.3 N 15 19 8 10 1018.4 - 0.0
31/09:30am 18.2 12.7 -9.7 14 9.9 N 13 17 7 9 1018.5 1018.5 0.0
31/09:00am 15.9 11.5 -2.1 29 7.3 N 11 13 6 7 1018.6 1018.6 0.0
31/08:30am 13.0 8.8 -3.7 31 6.4 N 9 20 5 11 1018.5 1018.5 0.0
31/08:00am 11.3 7.5 -4.0 34 5.7 NW 7 9 4 5 1018.5 - 0.0
31/07:30am 9.0 5.2 -3.5 41 4.6 NNW 7 9 4 5 1018.6 1018.6 0.0
31/07:00am 7.1 2.9 -4.0 45 3.9 NNW 9 9 5 5 1018.4 - 0.0
31/06:30am 6.5 2.2 -5.2 43 4.0 N 9 9 5 5 1018.2 1018.2 0.0
31/06:00am 6.1 2.3 -5.8 42 4.0 NNW 6 7 3 4 1018.0 1018.0 0.0
31/05:30am 6.2 3.5 -5.7 42 4.0 CALM 0 0 0 0 1018.0 1018.0 0.0
31/05:00am 6.7 4.0 -5.9 40 4.2 CALM 0 0 0 0 1017.9 - 0.0
31/04:30am 7.8 3.6 -4.3 42 4.3 N 9 11 5 6 1018.0 1018.0 0.0
31/04:00am 6.9 2.5 -5.4 41 4.2 N 9 11 5 6 1017.9 - 0.0
31/03:30am 7.8 3.5 -5.3 39 4.5 NNW 9 11 5 6 1018.1 1018.1 0.0
31/03:00am 8.4 5.9 -3.7 42 4.4 CALM 0 0 0 0 1018.5 1018.5 0.0
31/02:30am 8.2 5.6 -4.9 39 4.6 CALM 0 0 0 0 1018.6 1018.6 0.0
31/02:00am 9.1 5.4 -4.8 37 4.9 NW 6 7 3 4 1018.8 - 0.0
31/01:30am 9.4 5.6 -3.8 39 4.8 N 7 7 4 4 1018.8 1018.8 0.0
31/01:00am 9.7 5.5 -4.3 37 5.1 N 9 11 5 6 1019.0 - 0.0
31/12:30am 9.1 4.7 -5.9 34 5.2 NNW 9 9 5 5 1019.2 1019.2 0.0
31/12:00am 11.1 7.0 -3.0 37 5.3 NNW 9 11 5 6 1019.3 1019.3 0.0
 
Date/Time
CST
Temp
°C
App
Temp
°C
Dew
Point
Rel
Hum
%
Delta-T
°C
Wind Press
QNH
hPa
Press
MSL
hPa
Rain
since 9 am
mm
Dir
 
Spd
km/h
Gust
km/h
Spd
kts
Gust
kts
30/11:30pm 11.7 8.1 -2.1 38 5.4 N 7 9 4 5 1019.1 1019.1 0.0
30/11:00pm 11.8 8.1 -2.8 36 5.6 N 7 9 4 5 1019.3 - 0.0
30/10:30pm 12.0 9.2 -3.0 35 5.7 NW 2 6 1 3 1019.5 1019.5 0.0
30/10:00pm 13.7 10.0 -2.7 32 6.4 W 7 7 4 4 1019.6 - 0.0
30/09:30pm 14.5 11.2 -1.6 33 6.5 SW 6 7 3 4 1019.8 1019.8 0.0
30/09:00pm 14.5 10.9 -2.4 31 6.7 W 7 9 4 5 1019.7 1019.7 0.0
30/08:30pm 15.9 12.4 -1.2 31 7.1 WSW 7 9 4 5 1019.8 1019.8 0.0
30/08:00pm 15.3 11.8 -1.7 31 6.9 WSW 7 7 4 4 1019.8 - 0.0
30/07:30pm 16.6 13.1 -1.5 29 7.5 W 7 9 4 5 1019.8 1019.8 0.0
30/07:00pm 16.6 13.1 -1.5 29 7.5 WSW 7 7 4 4 1019.7 - 0.0
30/06:30pm 18.7 15.2 -1.2 26 8.5 WSW 7 9 4 5 1019.6 1019.6 0.0
30/06:00pm 20.2 16.7 -1.0 24 9.2 SW 7 9 4 5 1019.5 1019.5 0.0

Other Formats:

Comma delimited format used in spreadsheet applications
http://www.bom.gov.au/fwo/IDS60801/IDS60801.95481.axf

JavaScript Object Notation format (JSON) in row-major order
http://www.bom.gov.au/fwo/IDS60801/IDS60801.95481.json